createdAt,value
2022-07-29T00:01:54.457Z,22.47
2022-07-29T00:04:23.914Z,22.40
2022-07-29T00:06:51.154Z,22.47
2022-07-29T00:09:21.035Z,22.65
2022-07-29T00:11:51.583Z,22.74
2022-07-29T00:14:19.172Z,22.79
2022-07-29T00:16:46.592Z,22.62
2022-07-29T00:19:13.935Z,22.68
2022-07-29T00:21:41.292Z,22.68
2022-07-29T00:24:09.188Z,22.90
2022-07-29T00:26:36.824Z,22.77
2022-07-29T00:29:33.111Z,22.69
2022-07-29T00:31:54.271Z,22.83
2022-07-29T00:34:41.465Z,22.76
2022-07-29T00:37:09.131Z,22.85
2022-07-29T00:39:36.423Z,22.74
2022-07-29T00:42:06.250Z,22.82
2022-07-29T00:44:43.706Z,22.90
2022-07-29T00:47:13.359Z,22.65
2022-07-29T00:49:42.971Z,22.30
2022-07-29T00:52:12.307Z,22.45
2022-07-29T00:54:44.534Z,22.52
2022-07-29T00:57:17.681Z,22.01
2022-07-29T00:59:44.943Z,21.83
2022-07-29T01:02:12.627Z,21.92
2022-07-29T01:04:41.313Z,21.76
2022-07-29T01:07:09.040Z,21.84
2022-07-29T01:09:46.007Z,21.63
2022-07-29T01:12:21.267Z,21.53
2022-07-29T01:14:51.809Z,21.63
2022-07-29T01:17:32.791Z,21.69
2022-07-29T01:20:22.944Z,21.92
2022-07-29T01:23:42.170Z,21.54
2022-07-29T01:27:25.179Z,21.56
2022-07-29T01:30:02.467Z,21.38
2022-07-29T01:33:51.409Z,21.45
2022-07-29T01:37:34.122Z,21.36
2022-07-29T01:41:16.849Z,21.44
2022-07-29T01:44:59.498Z,21.42
2022-07-29T01:47:44.736Z,21.19
2022-07-29T01:51:28.311Z,21.38
2022-07-29T01:55:10.956Z,21.33
2022-07-29T01:58:53.827Z,21.22
2022-07-29T02:02:42.825Z,20.94
2022-07-29T02:06:28.494Z,21.12
2022-07-29T02:10:11.425Z,21.02
2022-07-29T02:13:54.618Z,21.13
2022-07-29T02:17:38.885Z,21.07
2022-07-29T02:20:18.599Z,21.20
2022-07-29T02:22:52.463Z,21.16
2022-07-29T02:25:23.471Z,21.03
2022-07-29T02:27:56.612Z,20.95
2022-07-29T02:30:26.714Z,20.78
2022-07-29T02:32:56.394Z,20.77
2022-07-29T02:35:26.980Z,20.82
2022-07-29T02:38:14.122Z,20.74
2022-07-29T02:40:47.511Z,20.71
2022-07-29T02:43:18.167Z,20.85
2022-07-29T02:45:55.340Z,20.91
2022-07-29T02:48:40.833Z,20.73
2022-07-29T02:51:44.179Z,21.04
2022-07-29T02:55:20.420Z,20.92
2022-07-29T02:58:07.397Z,20.71
2022-07-29T03:00:40.384Z,20.60
2022-07-29T03:03:16.402Z,20.93
2022-07-29T03:05:43.932Z,20.86
2022-07-29T03:08:14.030Z,20.76
2022-07-29T03:10:46.526Z,20.63
2022-07-29T03:13:15.454Z,20.69
2022-07-29T03:15:48.418Z,20.55
2022-07-29T03:18:16.846Z,20.54
2022-07-29T03:20:44.697Z,20.27
2022-07-29T03:23:20.795Z,20.42
2022-07-29T03:25:48.288Z,20.41
2022-07-29T03:28:15.855Z,20.42
2022-07-29T03:30:47.032Z,20.12
2022-07-29T03:33:15.359Z,20.29
2022-07-29T03:35:43.281Z,20.39
2022-07-29T03:38:16.096Z,20.49
2022-07-29T03:41:07.359Z,20.51
2022-07-29T03:43:49.608Z,20.34
2022-07-29T03:46:19.237Z,20.63
2022-07-29T03:48:51.976Z,20.63
2022-07-29T03:51:19.332Z,20.33
2022-07-29T03:54:10.084Z,20.24
2022-07-29T03:56:45.512Z,20.39
2022-07-29T03:59:16.538Z,20.45
2022-07-29T04:01:47.096Z,20.49
2022-07-29T04:04:18.539Z,20.55
2022-07-29T04:06:48.397Z,20.81
2022-07-29T04:09:18.425Z,20.61
2022-07-29T04:12:02.245Z,20.50
2022-07-29T04:14:36.898Z,20.85
2022-07-29T04:17:14.420Z,20.83
2022-07-29T04:19:44.525Z,21.02
2022-07-29T04:22:16.133Z,21.14
2022-07-29T04:24:44.592Z,21.10
2022-07-29T04:27:17.782Z,21.35
2022-07-29T04:29:56.959Z,21.15
2022-07-29T04:32:27.139Z,21.12
2022-07-29T04:34:54.865Z,20.86
2022-07-29T04:37:24.885Z,21.31
2022-07-29T04:39:57.592Z,21.32
2022-07-29T04:42:27.970Z,21.14
2022-07-29T04:45:01.249Z,21.65
2022-07-29T04:47:29.146Z,22.05
2022-07-29T04:49:57.315Z,22.76
2022-07-29T04:52:24.606Z,23.13
2022-07-29T04:54:52.592Z,22.72
2022-07-29T04:57:20.266Z,22.48
2022-07-29T04:59:47.767Z,22.33
2022-07-29T05:02:18.239Z,22.48
2022-07-29T05:04:49.438Z,22.75
2022-07-29T05:07:16.950Z,23.37
2022-07-29T05:09:44.542Z,23.84
2022-07-29T05:12:13.152Z,23.86
2022-07-29T05:14:40.911Z,24.43
2022-07-29T05:17:08.871Z,25.50
2022-07-29T05:19:41.477Z,26.40
2022-07-29T05:22:14.331Z,27.27
2022-07-29T05:24:45.369Z,27.47
2022-07-29T05:27:22.395Z,26.86
2022-07-29T05:29:53.313Z,26.58
2022-07-29T05:32:25.049Z,27.07
2022-07-29T05:35:06.030Z,27.59
2022-07-29T05:37:42.285Z,28.41
2022-07-29T05:40:13.474Z,29.28
2022-07-29T05:42:49.842Z,30.23
2022-07-29T05:45:25.134Z,30.60
2022-07-29T05:47:55.996Z,29.96
2022-07-29T05:50:28.747Z,29.08
2022-07-29T05:52:56.573Z,28.91
2022-07-29T05:55:43.068Z,29.73
2022-07-29T05:58:18.482Z,31.05
2022-07-29T06:01:01.790Z,32.15
2022-07-29T06:03:30.098Z,31.43
2022-07-29T06:05:57.779Z,32.13
2022-07-29T06:08:28.375Z,32.24
2022-07-29T06:10:58.530Z,33.24
2022-07-29T06:13:34.664Z,33.20
2022-07-29T06:16:06.501Z,32.23
2022-07-29T06:18:37.388Z,30.69
2022-07-29T06:21:18.759Z,30.55
2022-07-29T06:23:47.879Z,29.26
2022-07-29T06:26:16.018Z,31.08
2022-07-29T06:28:44.569Z,32.83
2022-07-29T06:31:14.943Z,34.42
2022-07-29T06:33:46.023Z,36.01
2022-07-29T06:36:13.689Z,36.44
2022-07-29T06:38:47.561Z,36.18
2022-07-29T06:41:18.540Z,35.83
2022-07-29T06:43:52.571Z,36.84
2022-07-29T06:46:24.465Z,37.74
2022-07-29T06:48:55.569Z,38.99
2022-07-29T06:51:24.189Z,38.13
2022-07-29T06:53:59.737Z,38.04
2022-07-29T06:56:42.062Z,39.47
2022-07-29T06:59:13.309Z,39.57
2022-07-29T07:01:56.967Z,41.22
2022-07-29T07:04:28.135Z,41.75
2022-07-29T07:07:02.344Z,42.64
2022-07-29T07:09:40.381Z,41.19
2022-07-29T07:12:17.632Z,38.41
2022-07-29T07:14:45.797Z,34.76
2022-07-29T07:17:15.593Z,33.29
2022-07-29T07:19:52.256Z,32.93
2022-07-29T07:22:26.101Z,33.20
2022-07-29T07:25:19.112Z,33.17
2022-07-29T07:27:46.902Z,34.83
2022-07-29T07:30:15.221Z,36.00
2022-07-29T07:32:42.905Z,35.46
2022-07-29T07:35:11.979Z,34.94
2022-07-29T07:37:45.566Z,33.34
2022-07-29T07:40:18.639Z,33.12
2022-07-29T07:42:46.492Z,33.38
2022-07-29T07:45:16.102Z,31.71
2022-07-29T07:47:44.632Z,30.86
2022-07-29T07:50:18.853Z,30.11
2022-07-29T07:52:58.560Z,32.52
2022-07-29T07:55:27.416Z,35.11
2022-07-29T07:57:56.610Z,37.32
2022-07-29T08:00:24.794Z,38.71
2022-07-29T08:02:52.261Z,38.82
2022-07-29T08:05:19.812Z,38.75
2022-07-29T08:07:48.311Z,39.57
2022-07-29T08:10:37.358Z,39.36
2022-07-29T08:13:11.806Z,38.50
2022-07-29T08:15:41.991Z,39.52
2022-07-29T08:18:09.837Z,40.84
2022-07-29T08:20:39.921Z,39.40
2022-07-29T08:23:11.758Z,38.55
2022-07-29T08:25:40.370Z,37.91
2022-07-29T08:28:10.881Z,39.13
2022-07-29T08:30:38.490Z,38.58
2022-07-29T08:33:06.114Z,38.55
2022-07-29T08:35:35.525Z,39.42
2022-07-29T08:38:04.441Z,40.14
2022-07-29T08:40:34.814Z,40.56
2022-07-29T08:43:09.890Z,42.26
2022-07-29T08:45:51.274Z,42.96
2022-07-29T08:48:25.738Z,42.07
2022-07-29T08:50:57.833Z,43.95
2022-07-29T08:53:28.203Z,45.36
2022-07-29T08:56:02.102Z,44.08
2022-07-29T08:58:37.041Z,44.12
2022-07-29T09:01:12.225Z,45.79
2022-07-29T09:03:47.261Z,46.96
2022-07-29T09:06:22.527Z,48.18
2022-07-29T09:08:50.926Z,49.52
2022-07-29T09:11:20.832Z,50.39
2022-07-29T09:13:50.483Z,51.96
2022-07-29T09:16:37.222Z,50.08
2022-07-29T09:19:29.929Z,50.44
2022-07-29T09:22:03.134Z,52.03
2022-07-29T09:24:48.275Z,51.80
2022-07-29T09:27:31.181Z,49.12
2022-07-29T09:30:15.875Z,49.19
2022-07-29T09:33:03.682Z,49.92
2022-07-29T09:35:32.240Z,50.00
2022-07-29T09:38:17.637Z,50.05
2022-07-29T09:41:05.862Z,50.51
2022-07-29T09:43:35.319Z,51.24
2022-07-29T09:46:14.440Z,52.09
2022-07-29T09:48:42.155Z,52.55
2022-07-29T09:51:24.233Z,50.49
2022-07-29T09:54:08.220Z,51.20
2022-07-29T09:56:47.132Z,50.83
2022-07-29T09:59:27.940Z,49.01
2022-07-29T10:01:58.056Z,49.21
2022-07-29T10:04:41.507Z,46.35
2022-07-29T10:07:09.492Z,42.79
2022-07-29T10:09:37.719Z,43.62
2022-07-29T10:12:10.197Z,45.63
2022-07-29T10:14:40.941Z,47.20
2022-07-29T10:17:11.523Z,49.26
2022-07-29T10:19:40.737Z,50.09
2022-07-29T10:22:11.509Z,50.42
2022-07-29T10:24:45.952Z,48.26
2022-07-29T10:27:27.112Z,46.89
2022-07-29T10:29:57.368Z,46.64
2022-07-29T10:33:18.761Z,48.01
2022-07-29T10:36:47.697Z,45.62
2022-07-29T10:40:53.073Z,44.92
2022-07-29T10:44:04.874Z,44.68
2022-07-29T10:46:42.975Z,44.05
2022-07-29T10:50:26.729Z,44.21
2022-07-29T10:52:59.603Z,43.56
2022-07-29T11:00:04.950Z,41.40
2022-07-29T11:03:57.856Z,41.18
2022-07-29T11:07:03.797Z,40.60
2022-07-29T11:09:37.443Z,39.38
2022-07-29T11:12:37.728Z,38.01
2022-07-29T11:15:10.039Z,37.08
2022-07-29T11:17:59.658Z,36.35
2022-07-29T11:20:50.997Z,36.15
2022-07-29T11:24:35.782Z,34.71
2022-07-29T11:28:27.081Z,33.15
2022-07-29T11:32:15.756Z,30.39
2022-07-29T11:34:48.596Z,25.95
2022-07-29T11:37:27.631Z,23.65
2022-07-29T11:40:01.564Z,22.30
2022-07-29T11:42:33.058Z,19.88
2022-07-29T11:45:41.902Z,19.61
2022-07-29T11:48:28.334Z,20.36
2022-07-29T11:50:58.588Z,21.21
2022-07-29T11:53:32.890Z,21.77
2022-07-29T11:56:02.459Z,21.56
2022-07-29T11:58:32.159Z,21.32
2022-07-29T12:01:19.105Z,21.35
2022-07-29T12:03:48.933Z,21.67
2022-07-29T12:06:18.078Z,21.97
2022-07-29T12:09:14.462Z,22.20
2022-07-29T12:11:47.328Z,22.13
2022-07-29T12:14:34.743Z,21.67
2022-07-29T12:17:06.385Z,21.63
2022-07-29T12:19:46.260Z,21.69
2022-07-29T12:22:44.450Z,21.72
2022-07-29T12:25:32.326Z,22.23
2022-07-29T12:28:14.128Z,22.62
2022-07-29T12:30:51.633Z,22.90
2022-07-29T12:33:30.762Z,22.87
2022-07-29T12:36:14.313Z,22.96
2022-07-29T12:38:50.732Z,23.13
2022-07-29T12:41:21.161Z,23.32
2022-07-29T12:43:59.268Z,23.42
2022-07-29T12:46:40.837Z,23.58
2022-07-29T12:49:08.448Z,23.63
2022-07-29T12:51:46.950Z,23.67
2022-07-29T12:54:39.977Z,23.75
2022-07-29T12:57:07.572Z,23.18
2022-07-29T13:00:14.431Z,23.18
2022-07-29T13:03:28.177Z,22.96
2022-07-29T13:05:59.205Z,22.94
2022-07-29T13:08:38.826Z,23.06
2022-07-29T13:12:27.874Z,23.15
2022-07-29T13:14:55.696Z,23.35
2022-07-29T13:18:41.768Z,23.61
2022-07-29T13:21:27.970Z,23.88
2022-07-29T13:24:09.079Z,24.21
2022-07-29T13:26:45.527Z,24.11
2022-07-29T13:29:17.703Z,23.80
2022-07-29T13:31:46.049Z,23.68
2022-07-29T13:35:30.720Z,23.65
2022-07-29T13:39:16.450Z,23.32
2022-07-29T13:41:44.081Z,22.94
2022-07-29T13:45:30.807Z,23.18
2022-07-29T13:47:58.333Z,23.24
2022-07-29T13:51:44.683Z,23.46
2022-07-29T13:54:14.415Z,23.81
2022-07-29T13:56:41.740Z,24.02
2022-07-29T14:00:24.817Z,24.15
2022-07-29T14:02:52.311Z,24.17
2022-07-29T14:05:19.694Z,24.10
2022-07-29T14:07:46.936Z,23.98
2022-07-29T14:10:18.399Z,24.33
2022-07-29T14:12:47.218Z,23.77
2022-07-29T14:15:18.286Z,24.43
2022-07-29T14:17:45.525Z,24.68
2022-07-29T14:20:13.190Z,25.12
2022-07-29T14:22:42.602Z,25.19
2022-07-29T14:25:14.925Z,25.88
2022-07-29T14:27:46.392Z,26.39
2022-07-29T14:30:14.246Z,26.09
2022-07-29T14:32:44.377Z,26.17
2022-07-29T14:35:11.787Z,25.51
2022-07-29T14:37:40.820Z,24.88
2022-07-29T14:40:10.514Z,25.21
2022-07-29T14:42:38.917Z,24.76
2022-07-29T14:45:10.205Z,25.50
2022-07-29T14:47:43.232Z,25.59
2022-07-29T14:50:15.467Z,26.00
2022-07-29T14:52:43.179Z,25.89
2022-07-29T14:55:16.464Z,25.49
2022-07-29T14:57:54.341Z,25.83
2022-07-29T15:00:27.403Z,25.78
2022-07-29T15:03:02.299Z,26.04
2022-07-29T15:05:34.142Z,26.17
2022-07-29T15:08:02.396Z,25.84
2022-07-29T15:10:30.366Z,25.67
2022-07-29T15:12:58.310Z,25.82
2022-07-29T15:15:28.418Z,25.93
2022-07-29T15:18:01.368Z,25.78
2022-07-29T15:20:32.724Z,26.05
2022-07-29T15:23:05.326Z,25.51
2022-07-29T15:25:33.957Z,25.82
2022-07-29T15:28:03.849Z,25.94
2022-07-29T15:30:34.843Z,26.01
2022-07-29T15:33:04.365Z,26.13
2022-07-29T15:35:40.444Z,26.14
2022-07-29T15:39:05.353Z,26.64
2022-07-29T15:41:46.385Z,26.75
2022-07-29T15:44:17.049Z,26.64
2022-07-29T15:47:06.374Z,26.69
2022-07-29T15:49:48.178Z,26.63
2022-07-29T15:52:25.693Z,26.28
2022-07-29T15:54:58.258Z,26.82
2022-07-29T15:57:26.063Z,26.66
2022-07-29T15:59:53.985Z,26.82
2022-07-29T16:02:27.252Z,27.15
2022-07-29T16:04:55.116Z,27.39
2022-07-29T16:07:22.406Z,27.67
2022-07-29T16:09:53.202Z,28.03
2022-07-29T16:12:23.016Z,28.21
2022-07-29T16:14:51.505Z,28.19
2022-07-29T16:17:21.193Z,28.51
2022-07-29T16:19:54.493Z,28.62
2022-07-29T16:22:24.428Z,28.72
2022-07-29T16:24:57.207Z,28.26
2022-07-29T16:27:27.145Z,27.95
2022-07-29T16:30:04.467Z,27.28
2022-07-29T16:32:32.083Z,27.51
2022-07-29T16:35:02.082Z,27.12
2022-07-29T16:37:33.534Z,27.57
2022-07-29T16:40:01.933Z,27.58
2022-07-29T16:42:46.226Z,27.65
2022-07-29T16:45:17.441Z,27.70
2022-07-29T16:47:48.644Z,27.37
2022-07-29T16:50:16.631Z,27.48
2022-07-29T16:52:43.871Z,27.50
2022-07-29T16:55:13.512Z,27.70
2022-07-29T16:57:42.673Z,27.66
2022-07-29T17:00:12.862Z,27.47
2022-07-29T17:02:43.068Z,27.17
2022-07-29T17:05:12.353Z,27.73
2022-07-29T17:07:42.918Z,27.51
2022-07-29T17:10:11.679Z,27.34
2022-07-29T17:12:49.376Z,27.18
2022-07-29T17:15:20.386Z,27.20
2022-07-29T17:17:55.197Z,27.16
2022-07-29T17:20:27.527Z,27.05
2022-07-29T17:23:00.382Z,27.03
2022-07-29T17:25:33.603Z,26.74
2022-07-29T17:28:03.269Z,26.58
2022-07-29T17:30:55.780Z,26.71
2022-07-29T17:33:25.580Z,26.61
2022-07-29T17:36:15.346Z,26.62
2022-07-29T17:38:43.864Z,26.59
2022-07-29T17:41:12.519Z,26.72
2022-07-29T17:43:40.248Z,26.45
2022-07-29T17:46:10.358Z,26.37
2022-07-29T17:48:40.086Z,26.48
2022-07-29T17:51:08.765Z,26.75
2022-07-29T17:53:39.678Z,26.60
2022-07-29T17:56:08.154Z,26.72
2022-07-29T17:58:36.485Z,26.68
2022-07-29T18:01:04.419Z,26.76
2022-07-29T18:03:32.565Z,26.89
2022-07-29T18:06:01.551Z,26.47
2022-07-29T18:08:35.034Z,26.65
2022-07-29T18:11:03.619Z,26.96
2022-07-29T18:13:33.541Z,27.04
2022-07-29T18:16:14.964Z,27.28
2022-07-29T18:18:46.040Z,27.48
2022-07-29T18:21:41.113Z,27.53
2022-07-29T18:24:20.831Z,27.44
2022-07-29T18:26:48.977Z,27.56
2022-07-29T18:29:23.161Z,27.39
2022-07-29T18:31:51.387Z,27.36
2022-07-29T18:34:19.657Z,26.98
2022-07-29T18:36:51.235Z,26.84
2022-07-29T18:39:22.066Z,26.95
2022-07-29T18:41:52.393Z,26.78
2022-07-29T18:44:30.512Z,26.32
2022-07-29T18:47:00.173Z,26.13
2022-07-29T18:49:33.305Z,26.00
2022-07-29T18:52:01.460Z,25.92
2022-07-29T18:55:27.423Z,25.79
2022-07-29T18:58:02.066Z,25.81
2022-07-29T19:00:35.957Z,25.60
2022-07-29T19:03:12.721Z,25.43
2022-07-29T19:05:56.087Z,25.29
2022-07-29T19:08:34.278Z,25.32
2022-07-29T19:11:14.839Z,25.31
2022-07-29T19:13:42.646Z,25.18
2022-07-29T19:16:35.182Z,25.10
2022-07-29T19:19:13.220Z,24.87
2022-07-29T19:21:42.146Z,24.88
2022-07-29T19:24:15.257Z,24.64
2022-07-29T19:26:49.537Z,24.65
2022-07-29T19:29:18.779Z,24.77
2022-07-29T19:31:48.512Z,24.52
2022-07-29T19:34:16.281Z,24.38
2022-07-29T19:36:43.888Z,24.14
2022-07-29T19:39:36.818Z,23.88
2022-07-29T19:42:05.530Z,24.09
2022-07-29T19:44:35.964Z,23.88
2022-07-29T19:47:05.171Z,23.65
2022-07-29T19:49:37.671Z,23.74
2022-07-29T19:52:10.971Z,23.56
2022-07-29T19:54:38.933Z,23.52
2022-07-29T19:57:06.808Z,23.50
2022-07-29T19:59:34.591Z,23.42
2022-07-29T20:02:10.737Z,23.77
2022-07-29T20:04:50.301Z,23.97
2022-07-29T20:07:24.861Z,24.13
2022-07-29T20:09:55.735Z,23.91
2022-07-29T20:12:24.299Z,23.90
2022-07-29T20:14:51.998Z,23.89
2022-07-29T20:17:22.499Z,24.05
2022-07-29T20:19:53.698Z,23.76
2022-07-29T20:22:27.488Z,23.79
2022-07-29T20:24:55.339Z,23.50
2022-07-29T20:27:23.253Z,23.34
2022-07-29T20:29:51.079Z,23.37
2022-07-29T20:32:19.547Z,23.50
2022-07-29T20:34:47.010Z,23.18
2022-07-29T20:38:33.074Z,23.24
2022-07-29T20:41:07.465Z,22.55
2022-07-29T20:44:56.942Z,22.81
2022-07-29T20:47:36.462Z,22.62
2022-07-29T20:51:20.549Z,22.38
2022-07-29T20:55:12.184Z,22.48
2022-07-29T20:57:40.211Z,22.80
2022-07-29T21:01:23.614Z,22.73
2022-07-29T21:03:50.902Z,22.40
2022-07-29T21:07:33.679Z,22.16
2022-07-29T21:11:16.307Z,22.60
2022-07-29T21:13:45.490Z,22.70
2022-07-29T21:16:14.860Z,22.32
2022-07-29T21:18:47.238Z,22.11
2022-07-29T21:21:16.470Z,22.06
2022-07-29T21:23:45.878Z,22.19
2022-07-29T21:26:17.916Z,22.42
2022-07-29T21:30:00.918Z,22.57
2022-07-29T21:33:50.753Z,22.02
2022-07-29T21:39:11.329Z,22.03
2022-07-29T21:41:38.796Z,21.99
2022-07-29T21:44:08.846Z,21.97
2022-07-29T21:46:36.610Z,21.75
2022-07-29T21:49:04.246Z,21.51
2022-07-29T21:51:31.520Z,21.43
2022-07-29T21:53:58.879Z,21.39
2022-07-29T21:56:32.872Z,21.49
2022-07-29T21:59:00.318Z,21.44
2022-07-29T22:01:27.751Z,21.22
2022-07-29T22:03:58.741Z,21.48
2022-07-29T22:06:26.111Z,21.25
2022-07-29T22:08:54.994Z,21.12
2022-07-29T22:11:32.859Z,21.55
2022-07-29T22:14:20.952Z,21.44
2022-07-29T22:16:58.013Z,21.17
2022-07-29T22:19:46.803Z,21.31
2022-07-29T22:23:30.306Z,21.50
2022-07-29T22:27:18.246Z,21.36
2022-07-29T22:29:47.888Z,21.49
2022-07-29T22:32:38.243Z,21.53
2022-07-29T22:35:07.822Z,21.83
2022-07-29T22:37:38.042Z,21.43
2022-07-29T22:40:07.349Z,21.51
2022-07-29T22:42:43.662Z,21.80
2022-07-29T22:45:20.571Z,21.55
2022-07-29T22:49:29.842Z,21.17
2022-07-29T22:52:11.284Z,20.92
2022-07-29T22:54:46.076Z,21.02
2022-07-29T22:58:29.409Z,20.92
2022-07-29T23:00:58.309Z,20.72
2022-07-29T23:03:26.451Z,20.86
2022-07-29T23:07:13.244Z,20.95
2022-07-29T23:09:40.550Z,21.19
2022-07-29T23:12:08.659Z,21.25
2022-07-29T23:14:36.073Z,21.10
2022-07-29T23:17:04.688Z,21.08
2022-07-29T23:20:09.795Z,20.76
2022-07-29T23:22:40.792Z,20.52
2022-07-29T23:25:08.842Z,20.32
2022-07-29T23:27:50.513Z,20.51
2022-07-29T23:31:13.239Z,20.39
2022-07-29T23:34:59.804Z,20.58
2022-07-29T23:37:28.836Z,20.68
2022-07-29T23:41:12.693Z,20.68
2022-07-29T23:45:03.622Z,20.72
2022-07-29T23:49:01.246Z,20.66
2022-07-29T23:53:16.795Z,20.58
2022-07-29T23:57:12.963Z,20.52
